sensor_id;sensor_type;location;lat;lon;timestamp;temperature;humidity
47626;DHT22;33342;45.574;9.252;2023-05-23T00:01:51;22.50;99.90
47626;DHT22;33342;45.574;9.252;2023-05-23T00:04:20;22.50;99.90
47626;DHT22;33342;45.574;9.252;2023-05-23T00:06:48;22.50;99.90
47626;DHT22;33342;45.574;9.252;2023-05-23T00:09:16;22.50;99.90
47626;DHT22;33342;45.574;9.252;2023-05-23T00:11:44;22.50;99.90
47626;DHT22;33342;45.574;9.252;2023-05-23T00:14:12;22.40;99.90
47626;DHT22;33342;45.574;9.252;2023-05-23T00:16:44;22.40;99.90
47626;DHT22;33342;45.574;9.252;2023-05-23T00:19:12;22.40;99.90
47626;DHT22;33342;45.574;9.252;2023-05-23T00:21:46;22.40;99.90
47626;DHT22;33342;45.574;9.252;2023-05-23T00:24:17;22.40;99.90
47626;DHT22;33342;45.574;9.252;2023-05-23T00:26:46;22.40;99.90
47626;DHT22;33342;45.574;9.252;2023-05-23T00:29:14;22.30;99.90
47626;DHT22;33342;45.574;9.252;2023-05-23T00:31:43;22.30;99.90
47626;DHT22;33342;45.574;9.252;2023-05-23T00:34:14;22.30;99.90
47626;DHT22;33342;45.574;9.252;2023-05-23T00:36:41;22.30;99.90
47626;DHT22;33342;45.574;9.252;2023-05-23T00:39:09;22.30;99.90
47626;DHT22;33342;45.574;9.252;2023-05-23T00:41:48;22.20;99.90
47626;DHT22;33342;45.574;9.252;2023-05-23T00:44:19;22.30;99.90
47626;DHT22;33342;45.574;9.252;2023-05-23T00:46:51;22.20;99.90
47626;DHT22;33342;45.574;9.252;2023-05-23T00:49:19;22.20;99.90
47626;DHT22;33342;45.574;9.252;2023-05-23T00:51:47;22.20;99.90
47626;DHT22;33342;45.574;9.252;2023-05-23T00:54:28;22.10;99.90
47626;DHT22;33342;45.574;9.252;2023-05-23T00:56:57;22.10;99.90
47626;DHT22;33342;45.574;9.252;2023-05-23T00:59:25;22.10;99.90
47626;DHT22;33342;45.574;9.252;2023-05-23T01:01:55;22.10;99.90
47626;DHT22;33342;45.574;9.252;2023-05-23T01:04:22;22.00;99.90
47626;DHT22;33342;45.574;9.252;2023-05-23T01:06:54;22.00;99.90
47626;DHT22;33342;45.574;9.252;2023-05-23T01:09:23;22.00;99.90
47626;DHT22;33342;45.574;9.252;2023-05-23T01:12:16;22.00;99.90
47626;DHT22;33342;45.574;9.252;2023-05-23T01:14:50;22.00;99.90
47626;DHT22;33342;45.574;9.252;2023-05-23T01:17:31;22.00;99.90
47626;DHT22;33342;45.574;9.252;2023-05-23T01:20:08;22.00;99.90
47626;DHT22;33342;45.574;9.252;2023-05-23T01:28:31;21.90;99.90
47626;DHT22;33342;45.574;9.252;2023-05-23T01:31:03;21.80;99.90
47626;DHT22;33342;45.574;9.252;2023-05-23T01:33:31;21.90;99.90
47626;DHT22;33342;45.574;9.252;2023-05-23T01:36:00;21.80;99.90
47626;DHT22;33342;45.574;9.252;2023-05-23T01:38:29;21.80;99.90
47626;DHT22;33342;45.574;9.252;2023-05-23T01:40:56;21.80;99.90
47626;DHT22;33342;45.574;9.252;2023-05-23T01:43:24;21.80;99.90
47626;DHT22;33342;45.574;9.252;2023-05-23T01:45:53;21.80;99.90
47626;DHT22;33342;45.574;9.252;2023-05-23T01:48:23;21.80;99.90
47626;DHT22;33342;45.574;9.252;2023-05-23T01:50:52;21.70;99.90
47626;DHT22;33342;45.574;9.252;2023-05-23T01:53:21;21.70;99.90
47626;DHT22;33342;45.574;9.252;2023-05-23T01:55:49;21.70;99.90
47626;DHT22;33342;45.574;9.252;2023-05-23T01:58:17;21.70;99.90
47626;DHT22;33342;45.574;9.252;2023-05-23T02:00:45;21.70;99.90
47626;DHT22;33342;45.574;9.252;2023-05-23T02:03:12;21.60;99.90
47626;DHT22;33342;45.574;9.252;2023-05-23T02:05:39;21.60;99.90
47626;DHT22;33342;45.574;9.252;2023-05-23T02:08:07;21.50;99.90
47626;DHT22;33342;45.574;9.252;2023-05-23T02:10:37;21.50;99.90
47626;DHT22;33342;45.574;9.252;2023-05-23T02:13:04;21.50;99.90
47626;DHT22;33342;45.574;9.252;2023-05-23T02:15:31;21.40;99.90
47626;DHT22;33342;45.574;9.252;2023-05-23T02:17:58;21.40;99.90
47626;DHT22;33342;45.574;9.252;2023-05-23T02:20:25;21.40;99.90
47626;DHT22;33342;45.574;9.252;2023-05-23T02:22:52;21.30;99.90
47626;DHT22;33342;45.574;9.252;2023-05-23T02:25:19;21.30;99.90
47626;DHT22;33342;45.574;9.252;2023-05-23T02:27:46;21.30;99.90
47626;DHT22;33342;45.574;9.252;2023-05-23T02:30:13;21.30;99.90
47626;DHT22;33342;45.574;9.252;2023-05-23T02:32:40;21.30;99.90
47626;DHT22;33342;45.574;9.252;2023-05-23T02:35:08;21.20;99.90
47626;DHT22;33342;45.574;9.252;2023-05-23T02:37:36;21.20;99.90
47626;DHT22;33342;45.574;9.252;2023-05-23T02:40:04;21.20;99.90
47626;DHT22;33342;45.574;9.252;2023-05-23T02:42:34;21.20;99.90
47626;DHT22;33342;45.574;9.252;2023-05-23T02:45:01;21.20;99.90
47626;DHT22;33342;45.574;9.252;2023-05-23T02:47:28;21.20;99.90
47626;DHT22;33342;45.574;9.252;2023-05-23T02:49:55;21.20;99.90
47626;DHT22;33342;45.574;9.252;2023-05-23T02:52:24;21.10;99.90
47626;DHT22;33342;45.574;9.252;2023-05-23T02:54:51;21.10;99.90
47626;DHT22;33342;45.574;9.252;2023-05-23T02:57:18;21.10;99.90
47626;DHT22;33342;45.574;9.252;2023-05-23T02:59:46;21.10;99.90
47626;DHT22;33342;45.574;9.252;2023-05-23T03:02:13;21.20;99.90
47626;DHT22;33342;45.574;9.252;2023-05-23T03:04:40;21.10;99.90
47626;DHT22;33342;45.574;9.252;2023-05-23T03:07:07;21.10;99.90
47626;DHT22;33342;45.574;9.252;2023-05-23T03:09:50;21.10;99.90
47626;DHT22;33342;45.574;9.252;2023-05-23T03:12:17;21.00;99.90
47626;DHT22;33342;45.574;9.252;2023-05-23T03:14:44;21.00;99.90
47626;DHT22;33342;45.574;9.252;2023-05-23T03:17:12;21.00;99.90
47626;DHT22;33342;45.574;9.252;2023-05-23T03:19:40;21.00;99.90
47626;DHT22;33342;45.574;9.252;2023-05-23T03:22:07;21.00;99.90
47626;DHT22;33342;45.574;9.252;2023-05-23T03:24:34;21.00;99.90
47626;DHT22;33342;45.574;9.252;2023-05-23T03:27:01;20.90;99.90
47626;DHT22;33342;45.574;9.252;2023-05-23T03:29:28;20.90;99.90
47626;DHT22;33342;45.574;9.252;2023-05-23T03:31:56;20.90;99.90
47626;DHT22;33342;45.574;9.252;2023-05-23T03:34:23;20.90;99.90
47626;DHT22;33342;45.574;9.252;2023-05-23T03:36:52;20.90;99.90
47626;DHT22;33342;45.574;9.252;2023-05-23T03:39:19;20.90;99.90
47626;DHT22;33342;45.574;9.252;2023-05-23T03:41:46;20.90;99.90
47626;DHT22;33342;45.574;9.252;2023-05-23T03:44:13;20.90;99.90
47626;DHT22;33342;45.574;9.252;2023-05-23T03:46:41;20.80;99.90
47626;DHT22;33342;45.574;9.252;2023-05-23T03:49:08;20.90;99.90
47626;DHT22;33342;45.574;9.252;2023-05-23T03:51:35;20.90;99.90
47626;DHT22;33342;45.574;9.252;2023-05-23T03:54:02;20.90;99.90
47626;DHT22;33342;45.574;9.252;2023-05-23T03:56:29;20.80;99.90
47626;DHT22;33342;45.574;9.252;2023-05-23T03:58:56;20.90;99.90
47626;DHT22;33342;45.574;9.252;2023-05-23T04:01:23;20.90;99.90
47626;DHT22;33342;45.574;9.252;2023-05-23T04:03:50;20.90;99.90
47626;DHT22;33342;45.574;9.252;2023-05-23T04:06:22;20.80;99.90
47626;DHT22;33342;45.574;9.252;2023-05-23T04:08:50;20.80;99.90
47626;DHT22;33342;45.574;9.252;2023-05-23T04:11:17;20.80;99.90
47626;DHT22;33342;45.574;9.252;2023-05-23T04:13:44;20.80;99.90
47626;DHT22;33342;45.574;9.252;2023-05-23T04:16:13;20.80;99.90
47626;DHT22;33342;45.574;9.252;2023-05-23T04:18:40;20.80;99.90
47626;DHT22;33342;45.574;9.252;2023-05-23T04:21:07;20.70;99.90
47626;DHT22;33342;45.574;9.252;2023-05-23T04:23:40;20.70;99.90
47626;DHT22;33342;45.574;9.252;2023-05-23T04:26:07;20.70;99.90
47626;DHT22;33342;45.574;9.252;2023-05-23T04:28:39;20.60;99.90
47626;DHT22;33342;45.574;9.252;2023-05-23T04:31:09;20.60;99.90
47626;DHT22;33342;45.574;9.252;2023-05-23T04:33:36;20.60;99.90
47626;DHT22;33342;45.574;9.252;2023-05-23T04:36:04;20.60;99.90
47626;DHT22;33342;45.574;9.252;2023-05-23T04:38:37;20.60;99.90
47626;DHT22;33342;45.574;9.252;2023-05-23T04:41:07;20.60;99.90
47626;DHT22;33342;45.574;9.252;2023-05-23T04:43:48;20.60;99.90
47626;DHT22;33342;45.574;9.252;2023-05-23T04:46:30;20.60;99.90
47626;DHT22;33342;45.574;9.252;2023-05-23T04:49:08;20.60;99.90
47626;DHT22;33342;45.574;9.252;2023-05-23T04:51:35;20.60;99.90
47626;DHT22;33342;45.574;9.252;2023-05-23T04:54:30;20.60;99.90
47626;DHT22;33342;45.574;9.252;2023-05-23T04:56:59;20.60;99.90
47626;DHT22;33342;45.574;9.252;2023-05-23T04:59:28;20.60;99.90
47626;DHT22;33342;45.574;9.252;2023-05-23T05:01:55;20.60;99.90
47626;DHT22;33342;45.574;9.252;2023-05-23T05:04:22;20.70;99.90
47626;DHT22;33342;45.574;9.252;2023-05-23T05:06:50;20.70;99.90
47626;DHT22;33342;45.574;9.252;2023-05-23T05:09:18;20.70;99.90
47626;DHT22;33342;45.574;9.252;2023-05-23T05:11:45;20.80;99.90
47626;DHT22;33342;45.574;9.252;2023-05-23T05:14:13;20.80;99.90
47626;DHT22;33342;45.574;9.252;2023-05-23T05:16:41;20.80;99.90
47626;DHT22;33342;45.574;9.252;2023-05-23T05:19:09;20.90;99.90
47626;DHT22;33342;45.574;9.252;2023-05-23T05:21:36;20.90;99.90
47626;DHT22;33342;45.574;9.252;2023-05-23T05:24:04;20.90;99.90
47626;DHT22;33342;45.574;9.252;2023-05-23T05:26:31;21.00;99.90
47626;DHT22;33342;45.574;9.252;2023-05-23T05:28:58;21.00;99.90
47626;DHT22;33342;45.574;9.252;2023-05-23T05:31:25;21.00;99.90
47626;DHT22;33342;45.574;9.252;2023-05-23T05:33:53;21.10;99.90
47626;DHT22;33342;45.574;9.252;2023-05-23T05:36:20;21.10;99.90
47626;DHT22;33342;45.574;9.252;2023-05-23T05:38:48;21.10;99.90
47626;DHT22;33342;45.574;9.252;2023-05-23T05:41:18;21.10;99.90
47626;DHT22;33342;45.574;9.252;2023-05-23T05:43:48;21.20;99.90
47626;DHT22;33342;45.574;9.252;2023-05-23T05:46:15;21.20;99.90
47626;DHT22;33342;45.574;9.252;2023-05-23T05:48:43;21.20;99.90
47626;DHT22;33342;45.574;9.252;2023-05-23T05:51:12;21.30;99.90
47626;DHT22;33342;45.574;9.252;2023-05-23T05:53:40;21.30;99.90
47626;DHT22;33342;45.574;9.252;2023-05-23T05:56:07;21.30;99.90
47626;DHT22;33342;45.574;9.252;2023-05-23T05:58:35;21.30;99.90
47626;DHT22;33342;45.574;9.252;2023-05-23T06:01:06;21.40;99.90
47626;DHT22;33342;45.574;9.252;2023-05-23T06:03:33;21.40;99.90
47626;DHT22;33342;45.574;9.252;2023-05-23T06:06:01;21.40;99.90
47626;DHT22;33342;45.574;9.252;2023-05-23T06:08:28;21.50;99.90
47626;DHT22;33342;45.574;9.252;2023-05-23T06:10:55;21.50;99.90
47626;DHT22;33342;45.574;9.252;2023-05-23T06:13:24;21.50;99.90
47626;DHT22;33342;45.574;9.252;2023-05-23T06:15:52;21.60;99.90
47626;DHT22;33342;45.574;9.252;2023-05-23T06:18:20;21.60;99.90
47626;DHT22;33342;45.574;9.252;2023-05-23T06:20:49;21.60;99.90
47626;DHT22;33342;45.574;9.252;2023-05-23T06:23:18;21.60;99.90
47626;DHT22;33342;45.574;9.252;2023-05-23T06:25:46;21.60;99.90
47626;DHT22;33342;45.574;9.252;2023-05-23T06:28:13;21.70;99.90
47626;DHT22;33342;45.574;9.252;2023-05-23T06:30:40;21.70;99.90
47626;DHT22;33342;45.574;9.252;2023-05-23T06:33:08;21.70;99.90
47626;DHT22;33342;45.574;9.252;2023-05-23T06:35:35;21.70;99.90
47626;DHT22;33342;45.574;9.252;2023-05-23T06:38:02;21.70;99.90
47626;DHT22;33342;45.574;9.252;2023-05-23T06:40:29;21.70;99.90
47626;DHT22;33342;45.574;9.252;2023-05-23T06:42:56;21.70;99.90
47626;DHT22;33342;45.574;9.252;2023-05-23T06:45:45;21.70;99.90
47626;DHT22;33342;45.574;9.252;2023-05-23T06:48:13;21.80;99.90
47626;DHT22;33342;45.574;9.252;2023-05-23T06:50:41;21.80;99.90
47626;DHT22;33342;45.574;9.252;2023-05-23T06:53:10;21.80;99.90
47626;DHT22;33342;45.574;9.252;2023-05-23T06:55:37;21.80;99.90
47626;DHT22;33342;45.574;9.252;2023-05-23T06:58:07;21.90;99.90
47626;DHT22;33342;45.574;9.252;2023-05-23T07:00:36;21.90;99.90
47626;DHT22;33342;45.574;9.252;2023-05-23T07:03:11;21.90;99.90
47626;DHT22;33342;45.574;9.252;2023-05-23T07:05:38;21.90;99.90
47626;DHT22;33342;45.574;9.252;2023-05-23T07:08:08;22.00;99.90
47626;DHT22;33342;45.574;9.252;2023-05-23T07:10:37;22.00;99.90
47626;DHT22;33342;45.574;9.252;2023-05-23T07:13:20;22.10;99.90
47626;DHT22;33342;45.574;9.252;2023-05-23T07:15:47;22.10;99.90
47626;DHT22;33342;45.574;9.252;2023-05-23T07:18:15;22.10;99.90
47626;DHT22;33342;45.574;9.252;2023-05-23T07:20:42;22.20;99.90
47626;DHT22;33342;45.574;9.252;2023-05-23T07:23:14;22.20;99.90
47626;DHT22;33342;45.574;9.252;2023-05-23T07:25:43;22.20;99.90
47626;DHT22;33342;45.574;9.252;2023-05-23T07:28:34;22.30;99.90
47626;DHT22;33342;45.574;9.252;2023-05-23T07:31:01;22.30;99.90
47626;DHT22;33342;45.574;9.252;2023-05-23T07:33:29;22.40;99.90
47626;DHT22;33342;45.574;9.252;2023-05-23T07:36:02;22.40;99.90
47626;DHT22;33342;45.574;9.252;2023-05-23T07:38:29;22.50;99.90
47626;DHT22;33342;45.574;9.252;2023-05-23T07:40:56;22.40;99.90
47626;DHT22;33342;45.574;9.252;2023-05-23T07:43:36;22.50;99.90
47626;DHT22;33342;45.574;9.252;2023-05-23T07:46:03;22.60;99.90
47626;DHT22;33342;45.574;9.252;2023-05-23T07:48:30;22.60;99.90
47626;DHT22;33342;45.574;9.252;2023-05-23T07:50:58;22.60;99.90
47626;DHT22;33342;45.574;9.252;2023-05-23T07:53:25;22.60;99.90
47626;DHT22;33342;45.574;9.252;2023-05-23T07:55:52;22.70;99.90
47626;DHT22;33342;45.574;9.252;2023-05-23T07:58:22;22.70;99.90
47626;DHT22;33342;45.574;9.252;2023-05-23T08:00:49;22.70;99.90
47626;DHT22;33342;45.574;9.252;2023-05-23T08:03:41;22.70;99.90
47626;DHT22;33342;45.574;9.252;2023-05-23T08:06:15;22.80;99.90
47626;DHT22;33342;45.574;9.252;2023-05-23T08:08:42;22.80;99.90
47626;DHT22;33342;45.574;9.252;2023-05-23T08:11:09;22.80;99.90
47626;DHT22;33342;45.574;9.252;2023-05-23T08:13:43;22.80;99.90
47626;DHT22;33342;45.574;9.252;2023-05-23T08:16:31;22.90;99.90
47626;DHT22;33342;45.574;9.252;2023-05-23T08:18:59;22.90;99.90
47626;DHT22;33342;45.574;9.252;2023-05-23T08:21:27;22.90;99.90
47626;DHT22;33342;45.574;9.252;2023-05-23T08:23:54;22.90;99.90
47626;DHT22;33342;45.574;9.252;2023-05-23T08:26:21;23.00;99.90
47626;DHT22;33342;45.574;9.252;2023-05-23T08:28:49;23.00;99.90
47626;DHT22;33342;45.574;9.252;2023-05-23T08:31:17;23.00;99.90
47626;DHT22;33342;45.574;9.252;2023-05-23T08:33:44;23.10;99.90
47626;DHT22;33342;45.574;9.252;2023-05-23T08:36:12;23.10;99.90
47626;DHT22;33342;45.574;9.252;2023-05-23T08:38:40;23.10;99.90
47626;DHT22;33342;45.574;9.252;2023-05-23T08:41:19;23.10;99.90
47626;DHT22;33342;45.574;9.252;2023-05-23T08:43:49;23.20;99.90
47626;DHT22;33342;45.574;9.252;2023-05-23T08:46:23;23.20;99.90
47626;DHT22;33342;45.574;9.252;2023-05-23T08:48:54;23.20;99.90
47626;DHT22;33342;45.574;9.252;2023-05-23T08:51:26;23.20;99.90
47626;DHT22;33342;45.574;9.252;2023-05-23T08:53:56;23.30;99.90
47626;DHT22;33342;45.574;9.252;2023-05-23T08:56:26;23.30;99.90
47626;DHT22;33342;45.574;9.252;2023-05-23T08:58:56;23.40;99.90
47626;DHT22;33342;45.574;9.252;2023-05-23T09:01:25;23.40;99.90
47626;DHT22;33342;45.574;9.252;2023-05-23T09:03:55;23.40;99.90
47626;DHT22;33342;45.574;9.252;2023-05-23T09:06:28;23.40;99.90
47626;DHT22;33342;45.574;9.252;2023-05-23T09:08:56;23.50;99.90
47626;DHT22;33342;45.574;9.252;2023-05-23T09:11:23;23.50;99.90
47626;DHT22;33342;45.574;9.252;2023-05-23T09:13:51;23.60;99.90
47626;DHT22;33342;45.574;9.252;2023-05-23T09:16:21;23.60;99.90
47626;DHT22;33342;45.574;9.252;2023-05-23T09:18:53;23.60;99.90
47626;DHT22;33342;45.574;9.252;2023-05-23T09:21:23;23.60;99.90
47626;DHT22;33342;45.574;9.252;2023-05-23T09:24:05;23.70;99.90
47626;DHT22;33342;45.574;9.252;2023-05-23T09:26:33;23.70;99.90
47626;DHT22;33342;45.574;9.252;2023-05-23T09:29:00;23.70;99.90
47626;DHT22;33342;45.574;9.252;2023-05-23T09:31:31;23.80;99.90
47626;DHT22;33342;45.574;9.252;2023-05-23T09:33:58;23.80;99.90
47626;DHT22;33342;45.574;9.252;2023-05-23T09:36:28;23.80;99.90
47626;DHT22;33342;45.574;9.252;2023-05-23T09:38:56;23.80;99.90
47626;DHT22;33342;45.574;9.252;2023-05-23T09:41:23;23.90;99.90
47626;DHT22;33342;45.574;9.252;2023-05-23T09:43:51;23.90;99.90
47626;DHT22;33342;45.574;9.252;2023-05-23T09:46:21;23.90;99.90
47626;DHT22;33342;45.574;9.252;2023-05-23T09:48:49;23.90;99.90
47626;DHT22;33342;45.574;9.252;2023-05-23T09:51:20;24.00;99.90
47626;DHT22;33342;45.574;9.252;2023-05-23T09:53:48;24.00;99.90
47626;DHT22;33342;45.574;9.252;2023-05-23T09:56:16;24.10;99.90
47626;DHT22;33342;45.574;9.252;2023-05-23T09:58:47;24.10;99.90
47626;DHT22;33342;45.574;9.252;2023-05-23T10:01:15;24.10;99.90
47626;DHT22;33342;45.574;9.252;2023-05-23T10:03:48;24.20;99.90
47626;DHT22;33342;45.574;9.252;2023-05-23T10:06:25;24.20;99.90
47626;DHT22;33342;45.574;9.252;2023-05-23T10:09:06;24.20;99.90
47626;DHT22;33342;45.574;9.252;2023-05-23T10:14:09;24.30;99.90
47626;DHT22;33342;45.574;9.252;2023-05-23T10:17:02;24.30;99.90
47626;DHT22;33342;45.574;9.252;2023-05-23T10:20:07;24.30;99.90
47626;DHT22;33342;45.574;9.252;2023-05-23T10:22:37;24.30;99.90
47626;DHT22;33342;45.574;9.252;2023-05-23T10:25:04;24.40;99.90
47626;DHT22;33342;45.574;9.252;2023-05-23T10:27:33;24.40;99.90
47626;DHT22;33342;45.574;9.252;2023-05-23T10:30:00;24.40;99.90
47626;DHT22;33342;45.574;9.252;2023-05-23T10:32:29;24.40;99.90
47626;DHT22;33342;45.574;9.252;2023-05-23T10:37:38;24.50;99.90
47626;DHT22;33342;45.574;9.252;2023-05-23T10:40:16;24.60;99.90
47626;DHT22;33342;45.574;9.252;2023-05-23T10:43:07;24.60;99.90
47626;DHT22;33342;45.574;9.252;2023-05-23T10:45:42;24.70;99.90
47626;DHT22;33342;45.574;9.252;2023-05-23T10:48:30;24.70;99.90
47626;DHT22;33342;45.574;9.252;2023-05-23T10:51:06;24.70;99.90
47626;DHT22;33342;45.574;9.252;2023-05-23T10:53:42;24.80;99.90
47626;DHT22;33342;45.574;9.252;2023-05-23T10:56:18;24.80;99.90
47626;DHT22;33342;45.574;9.252;2023-05-23T10:58:53;24.80;99.90
47626;DHT22;33342;45.574;9.252;2023-05-23T11:01:21;24.90;99.90
47626;DHT22;33342;45.574;9.252;2023-05-23T11:03:52;24.90;99.90
47626;DHT22;33342;45.574;9.252;2023-05-23T11:06:35;24.90;99.90
47626;DHT22;33342;45.574;9.252;2023-05-23T11:09:08;25.00;99.90
47626;DHT22;33342;45.574;9.252;2023-05-23T11:11:52;25.00;99.90
47626;DHT22;33342;45.574;9.252;2023-05-23T11:14:31;25.00;99.90
47626;DHT22;33342;45.574;9.252;2023-05-23T11:17:32;25.10;99.90
47626;DHT22;33342;45.574;9.252;2023-05-23T11:20:04;25.10;99.90
47626;DHT22;33342;45.574;9.252;2023-05-23T11:22:34;25.20;99.90
47626;DHT22;33342;45.574;9.252;2023-05-23T11:25:06;25.20;99.90
47626;DHT22;33342;45.574;9.252;2023-05-23T11:27:37;25.20;99.90
47626;DHT22;33342;45.574;9.252;2023-05-23T11:32:36;25.30;99.90
47626;DHT22;33342;45.574;9.252;2023-05-23T11:35:07;25.30;99.90
47626;DHT22;33342;45.574;9.252;2023-05-23T11:37:34;25.30;99.90
47626;DHT22;33342;45.574;9.252;2023-05-23T11:40:27;25.30;99.90
47626;DHT22;33342;45.574;9.252;2023-05-23T11:42:55;25.40;99.90
47626;DHT22;33342;45.574;9.252;2023-05-23T11:45:23;25.40;99.90
47626;DHT22;33342;45.574;9.252;2023-05-23T11:47:50;25.40;99.90
47626;DHT22;33342;45.574;9.252;2023-05-23T11:50:17;25.50;99.90
47626;DHT22;33342;45.574;9.252;2023-05-23T11:52:46;25.50;99.90
47626;DHT22;33342;45.574;9.252;2023-05-23T11:55:20;25.60;99.90
47626;DHT22;33342;45.574;9.252;2023-05-23T11:57:49;25.60;99.90
47626;DHT22;33342;45.574;9.252;2023-05-23T12:00:18;25.70;99.90
47626;DHT22;33342;45.574;9.252;2023-05-23T12:02:45;25.70;99.90
47626;DHT22;33342;45.574;9.252;2023-05-23T12:05:15;25.70;99.90
47626;DHT22;33342;45.574;9.252;2023-05-23T12:07:47;25.70;99.90
47626;DHT22;33342;45.574;9.252;2023-05-23T12:10:15;25.70;99.90
47626;DHT22;33342;45.574;9.252;2023-05-23T12:12:43;25.80;99.90
47626;DHT22;33342;45.574;9.252;2023-05-23T12:15:11;25.80;99.90
47626;DHT22;33342;45.574;9.252;2023-05-23T12:17:44;25.80;99.90
47626;DHT22;33342;45.574;9.252;2023-05-23T12:20:14;25.90;99.90
47626;DHT22;33342;45.574;9.252;2023-05-23T12:22:42;25.90;99.90
47626;DHT22;33342;45.574;9.252;2023-05-23T12:25:09;25.90;99.90
47626;DHT22;33342;45.574;9.252;2023-05-23T12:27:40;26.00;99.90
47626;DHT22;33342;45.574;9.252;2023-05-23T12:30:10;26.00;99.90
47626;DHT22;33342;45.574;9.252;2023-05-23T12:32:44;26.10;99.90
47626;DHT22;33342;45.574;9.252;2023-05-23T12:35:13;26.10;99.90
47626;DHT22;33342;45.574;9.252;2023-05-23T12:37:43;26.10;99.90
47626;DHT22;33342;45.574;9.252;2023-05-23T12:40:15;26.20;99.90
47626;DHT22;33342;45.574;9.252;2023-05-23T12:42:53;26.20;99.90
47626;DHT22;33342;45.574;9.252;2023-05-23T12:45:31;26.20;99.90
47626;DHT22;33342;45.574;9.252;2023-05-23T12:47:59;26.30;99.90
47626;DHT22;33342;45.574;9.252;2023-05-23T12:50:28;26.40;99.90
47626;DHT22;33342;45.574;9.252;2023-05-23T12:52:55;26.40;99.90
47626;DHT22;33342;45.574;9.252;2023-05-23T12:55:22;26.50;99.90
47626;DHT22;33342;45.574;9.252;2023-05-23T12:57:49;26.60;99.90
47626;DHT22;33342;45.574;9.252;2023-05-23T13:00:16;26.70;99.90
47626;DHT22;33342;45.574;9.252;2023-05-23T13:02:45;26.70;99.90
47626;DHT22;33342;45.574;9.252;2023-05-23T13:05:12;26.70;99.90
47626;DHT22;33342;45.574;9.252;2023-05-23T13:07:39;26.80;99.90
47626;DHT22;33342;45.574;9.252;2023-05-23T13:10:07;26.90;99.90
47626;DHT22;33342;45.574;9.252;2023-05-23T13:12:35;27.00;99.90
47626;DHT22;33342;45.574;9.252;2023-05-23T13:15:03;27.10;99.90
47626;DHT22;33342;45.574;9.252;2023-05-23T13:17:31;27.20;99.90
47626;DHT22;33342;45.574;9.252;2023-05-23T13:19:58;27.30;99.90
47626;DHT22;33342;45.574;9.252;2023-05-23T13:22:25;27.20;99.90
47626;DHT22;33342;45.574;9.252;2023-05-23T13:24:52;27.30;99.90
47626;DHT22;33342;45.574;9.252;2023-05-23T13:27:19;27.30;99.90
47626;DHT22;33342;45.574;9.252;2023-05-23T13:29:46;27.30;99.90
47626;DHT22;33342;45.574;9.252;2023-05-23T13:32:13;27.30;99.90
47626;DHT22;33342;45.574;9.252;2023-05-23T13:34:41;27.40;99.90
47626;DHT22;33342;45.574;9.252;2023-05-23T13:37:08;27.40;99.90
47626;DHT22;33342;45.574;9.252;2023-05-23T13:39:35;27.40;99.90
47626;DHT22;33342;45.574;9.252;2023-05-23T13:42:02;27.50;99.90
47626;DHT22;33342;45.574;9.252;2023-05-23T13:44:29;27.50;99.90
47626;DHT22;33342;45.574;9.252;2023-05-23T13:47:03;27.60;99.90
47626;DHT22;33342;45.574;9.252;2023-05-23T13:49:39;27.70;99.90
47626;DHT22;33342;45.574;9.252;2023-05-23T13:52:07;27.70;99.90
47626;DHT22;33342;45.574;9.252;2023-05-23T13:54:34;27.70;99.90
47626;DHT22;33342;45.574;9.252;2023-05-23T13:57:01;27.80;99.90
47626;DHT22;33342;45.574;9.252;2023-05-23T13:59:29;27.80;99.90
47626;DHT22;33342;45.574;9.252;2023-05-23T14:01:56;28.00;99.90
47626;DHT22;33342;45.574;9.252;2023-05-23T14:04:23;28.10;99.90
47626;DHT22;33342;45.574;9.252;2023-05-23T14:06:51;28.10;99.90
47626;DHT22;33342;45.574;9.252;2023-05-23T14:09:18;28.30;99.90
47626;DHT22;33342;45.574;9.252;2023-05-23T14:11:48;28.40;99.90
47626;DHT22;33342;45.574;9.252;2023-05-23T14:14:18;28.50;99.90
47626;DHT22;33342;45.574;9.252;2023-05-23T14:16:45;28.60;99.90
47626;DHT22;33342;45.574;9.252;2023-05-23T14:19:12;28.70;99.90
47626;DHT22;33342;45.574;9.252;2023-05-23T14:21:39;28.70;99.90
47626;DHT22;33342;45.574;9.252;2023-05-23T14:24:10;28.80;99.90
47626;DHT22;33342;45.574;9.252;2023-05-23T14:26:37;28.90;99.90
47626;DHT22;33342;45.574;9.252;2023-05-23T14:29:04;29.10;99.90
47626;DHT22;33342;45.574;9.252;2023-05-23T14:31:32;29.30;99.90
47626;DHT22;33342;45.574;9.252;2023-05-23T14:33:59;29.50;99.90
47626;DHT22;33342;45.574;9.252;2023-05-23T14:36:27;29.60;99.90
47626;DHT22;33342;45.574;9.252;2023-05-23T14:38:54;29.70;99.90
47626;DHT22;33342;45.574;9.252;2023-05-23T14:41:21;29.70;99.90
47626;DHT22;33342;45.574;9.252;2023-05-23T14:43:48;29.80;99.90
47626;DHT22;33342;45.574;9.252;2023-05-23T14:46:17;29.80;99.90
47626;DHT22;33342;45.574;9.252;2023-05-23T14:48:44;29.80;99.90
47626;DHT22;33342;45.574;9.252;2023-05-23T14:51:11;29.90;99.90
47626;DHT22;33342;45.574;9.252;2023-05-23T14:53:56;30.00;99.90
47626;DHT22;33342;45.574;9.252;2023-05-23T14:56:23;30.10;99.90
47626;DHT22;33342;45.574;9.252;2023-05-23T14:58:50;30.20;99.90
47626;DHT22;33342;45.574;9.252;2023-05-23T15:01:18;30.20;99.90
47626;DHT22;33342;45.574;9.252;2023-05-23T15:03:45;30.30;99.90
47626;DHT22;33342;45.574;9.252;2023-05-23T15:06:12;30.40;99.90
47626;DHT22;33342;45.574;9.252;2023-05-23T15:08:40;30.20;99.90
47626;DHT22;33342;45.574;9.252;2023-05-23T15:11:07;30.20;99.90
47626;DHT22;33342;45.574;9.252;2023-05-23T15:13:35;30.10;99.90
47626;DHT22;33342;45.574;9.252;2023-05-23T15:16:21;30.10;99.90
47626;DHT22;33342;45.574;9.252;2023-05-23T15:18:48;30.00;99.90
47626;DHT22;33342;45.574;9.252;2023-05-23T15:21:15;29.90;99.90
47626;DHT22;33342;45.574;9.252;2023-05-23T15:23:42;30.00;99.90
47626;DHT22;33342;45.574;9.252;2023-05-23T15:26:09;30.10;99.90
47626;DHT22;33342;45.574;9.252;2023-05-23T15:28:36;30.20;99.90
47626;DHT22;33342;45.574;9.252;2023-05-23T15:31:04;30.40;99.90
47626;DHT22;33342;45.574;9.252;2023-05-23T15:33:31;30.70;99.90
47626;DHT22;33342;45.574;9.252;2023-05-23T15:35:58;30.90;99.90
47626;DHT22;33342;45.574;9.252;2023-05-23T15:38:25;31.10;99.90
47626;DHT22;33342;45.574;9.252;2023-05-23T15:40:52;31.20;99.90
47626;DHT22;33342;45.574;9.252;2023-05-23T15:43:22;31.20;99.90
47626;DHT22;33342;45.574;9.252;2023-05-23T15:45:51;31.20;99.90
47626;DHT22;33342;45.574;9.252;2023-05-23T15:48:18;31.20;99.90
47626;DHT22;33342;45.574;9.252;2023-05-23T15:50:45;31.30;99.90
47626;DHT22;33342;45.574;9.252;2023-05-23T15:53:13;31.60;99.90
47626;DHT22;33342;45.574;9.252;2023-05-23T15:55:40;31.90;99.90
47626;DHT22;33342;45.574;9.252;2023-05-23T15:58:09;32.30;99.90
47626;DHT22;33342;45.574;9.252;2023-05-23T16:00:36;32.70;99.90